createdAt,value
2023-04-06T00:02:17.001Z,99445.22
2023-04-06T00:04:43.423Z,99453.34
2023-04-06T00:07:09.864Z,99451.66
2023-04-06T00:09:36.708Z,99440.38
2023-04-06T00:12:03.228Z,99442.16
2023-04-06T00:14:29.700Z,99442.44
2023-04-06T00:16:56.836Z,99442.59
2023-04-06T00:19:23.385Z,99436.78
2023-04-06T00:21:49.899Z,99444.66
2023-04-06T00:24:16.556Z,99438.47
2023-04-06T00:26:43.335Z,99434.91
2023-04-06T00:29:10.257Z,99435.94
2023-04-06T00:31:36.887Z,99430.97
2023-04-06T00:34:03.560Z,99432.19
2023-04-06T00:36:30.892Z,99435.75
2023-04-06T00:38:57.307Z,99430.22
2023-04-06T00:41:24.559Z,99428.81
2023-04-06T00:43:51.037Z,99423.88
2023-04-06T00:46:17.654Z,99420.72
2023-04-06T00:48:44.351Z,99420.94
2023-04-06T00:51:11.281Z,99419.41
2023-04-06T00:53:37.725Z,99414.81
2023-04-06T00:56:04.378Z,99410.53
2023-04-06T00:58:30.944Z,99408.94
2023-04-06T01:00:57.886Z,99408.84
2023-04-06T01:03:24.459Z,99405.16
2023-04-06T01:05:56.585Z,99404.31
2023-04-06T01:08:23.280Z,99394.44
2023-04-06T01:10:49.980Z,99391.88
2023-04-06T01:13:16.782Z,99395.47
2023-04-06T01:15:43.572Z,99390.00
2023-04-06T01:18:11.655Z,99391.88
2023-04-06T01:20:38.256Z,99385.06
2023-04-06T01:23:05.278Z,99382.66
2023-04-06T01:25:31.768Z,99378.28
2023-04-06T01:27:58.517Z,99368.59
2023-04-06T01:30:25.075Z,99376.75
2023-04-06T01:32:51.851Z,99367.22
2023-04-06T01:35:20.232Z,99367.47
2023-04-06T01:37:46.668Z,99357.75
2023-04-06T01:40:14.806Z,99367.47
2023-04-06T01:42:41.358Z,99358.69
2023-04-06T01:45:08.613Z,99356.91
2023-04-06T01:47:35.135Z,99360.22
2023-04-06T01:50:02.244Z,99356.66
2023-04-06T01:52:28.666Z,99355.19
2023-04-06T01:54:55.244Z,99356.13
2023-04-06T01:57:22.417Z,99352.13
2023-04-06T01:59:48.812Z,99350.50
2023-04-06T02:02:15.468Z,99348.53
2023-04-06T02:04:42.281Z,99344.59
2023-04-06T02:07:08.726Z,99341.19
2023-04-06T02:09:35.743Z,99337.03
2023-04-06T02:12:02.747Z,99337.03
2023-04-06T02:14:29.271Z,99328.41
2023-04-06T02:16:55.780Z,99336.41
2023-04-06T02:19:22.158Z,99332.91
2023-04-06T02:21:48.818Z,99332.81
2023-04-06T02:24:15.456Z,99330.25
2023-04-06T02:26:41.856Z,99338.19
2023-04-06T02:29:08.624Z,99334.38
2023-04-06T02:31:35.342Z,99335.16
2023-04-06T02:34:01.793Z,99338.63
2023-04-06T02:36:28.169Z,99344.69
2023-04-06T02:38:55.226Z,99342.16
2023-04-06T02:41:21.679Z,99334.38
2023-04-06T02:43:48.107Z,99332.81
2023-04-06T02:46:14.567Z,99340.06
2023-04-06T02:48:41.554Z,99329.84
2023-04-06T02:51:08.044Z,99334.59
2023-04-06T02:53:34.882Z,99326.16
2023-04-06T02:56:01.599Z,99325.53
2023-04-06T02:58:28.014Z,99335.78
2023-04-06T03:00:54.708Z,99336.13
2023-04-06T03:03:21.555Z,99334.13
2023-04-06T03:05:48.516Z,99336.16
2023-04-06T03:08:15.197Z,99336.94
2023-04-06T03:10:41.995Z,99332.88
2023-04-06T03:13:08.388Z,99335.22
2023-04-06T03:15:34.845Z,99331.00
2023-04-06T03:18:01.330Z,99330.56
2023-04-06T03:20:28.147Z,99335.13
2023-04-06T03:22:54.870Z,99332.03
2023-04-06T03:25:21.232Z,99337.38
2023-04-06T03:27:48.051Z,99344.72
2023-04-06T03:30:14.653Z,99330.06
2023-04-06T03:32:41.495Z,99340.28
2023-04-06T03:35:08.246Z,99333.88
2023-04-06T03:37:35.020Z,99334.03
2023-04-06T03:40:01.583Z,99329.75
2023-04-06T03:42:27.971Z,99332.22
2023-04-06T03:44:54.661Z,99332.72
2023-04-06T03:47:21.327Z,99331.13
2023-04-06T03:49:47.757Z,99331.00
2023-04-06T03:52:14.141Z,99332.88
2023-04-06T03:54:41.040Z,99325.69
2023-04-06T03:57:07.683Z,99330.56
2023-04-06T03:59:34.663Z,99331.81
2023-04-06T04:02:01.161Z,99326.53
2023-04-06T04:04:27.616Z,99329.16
2023-04-06T04:06:54.241Z,99332.78
2023-04-06T04:09:20.631Z,99329.94
2023-04-06T04:11:47.474Z,99331.94
2023-04-06T04:14:13.866Z,99340.19
2023-04-06T04:16:40.793Z,99335.63
2023-04-06T04:19:07.507Z,99333.53
2023-04-06T04:21:34.469Z,99341.88
2023-04-06T04:24:00.849Z,99337.28
2023-04-06T04:26:27.277Z,99341.06
2023-04-06T04:28:53.709Z,99335.56
2023-04-06T04:31:21.337Z,99340.63
2023-04-06T04:33:47.770Z,99332.09
2023-04-06T04:36:14.332Z,99333.09
2023-04-06T04:38:41.148Z,99332.53
2023-04-06T04:41:07.518Z,99337.13
2023-04-06T04:43:34.396Z,99331.31
2023-04-06T04:46:00.777Z,99332.88
2023-04-06T04:48:27.250Z,99336.44
2023-04-06T04:50:53.980Z,99337.22
2023-04-06T04:53:20.601Z,99338.31
2023-04-06T04:55:47.383Z,99337.47
2023-04-06T04:58:17.468Z,99338.00
2023-04-06T05:00:44.820Z,99334.13
2023-04-06T05:03:19.370Z,99330.91
2023-04-06T05:05:45.960Z,99328.38
2023-04-06T05:08:13.439Z,99333.34
2023-04-06T05:10:40.667Z,99330.19
2023-04-06T05:13:07.047Z,99329.53
2023-04-06T05:15:35.897Z,99332.34
2023-04-06T05:18:02.419Z,99338.16
2023-04-06T05:20:29.123Z,99333.03
2023-04-06T05:22:55.503Z,99333.91
2023-04-06T05:25:22.374Z,99335.00
2023-04-06T05:27:48.812Z,99332.53
2023-04-06T05:30:15.725Z,99330.47
2023-04-06T05:32:43.565Z,99331.75
2023-04-06T05:35:10.591Z,99331.47
2023-04-06T05:37:37.192Z,99337.34
2023-04-06T05:40:04.484Z,99326.69
2023-04-06T05:42:40.866Z,99328.81
2023-04-06T05:45:08.072Z,99331.13
2023-04-06T05:47:34.750Z,99330.13
2023-04-06T05:50:01.212Z,99336.25
2023-04-06T05:52:27.916Z,99334.03
2023-04-06T05:54:55.093Z,99331.00
2023-04-06T05:57:21.837Z,99327.59
2023-04-06T05:59:48.543Z,99337.56
2023-04-06T06:02:15.220Z,99339.03
2023-04-06T06:04:41.800Z,99336.16
2023-04-06T06:07:08.888Z,99330.34
2023-04-06T06:09:35.259Z,99333.09
2023-04-06T06:12:01.702Z,99322.81
2023-04-06T06:14:31.413Z,99329.63
2023-04-06T06:16:58.181Z,99323.75
2023-04-06T06:19:24.583Z,99318.69
2023-04-06T06:21:51.468Z,99323.50
2023-04-06T06:24:17.918Z,99329.56
2023-04-06T06:26:44.790Z,99333.44
2023-04-06T06:29:11.461Z,99327.22
2023-04-06T06:31:38.186Z,99330.50
2023-04-06T06:34:05.053Z,99337.97
2023-04-06T06:36:32.574Z,99329.50
2023-04-06T06:38:59.341Z,99331.75
2023-04-06T06:41:26.991Z,99333.75
2023-04-06T06:43:53.439Z,99330.53
2023-04-06T06:46:19.907Z,99342.75
2023-04-06T06:48:46.581Z,99329.94
2023-04-06T06:51:13.133Z,99335.53
2023-04-06T06:53:39.540Z,99333.44
2023-04-06T06:56:06.222Z,99339.94
2023-04-06T06:58:32.656Z,99326.75
2023-04-06T07:01:00.050Z,99329.88
2023-04-06T07:03:27.027Z,99324.59
2023-04-06T07:05:56.614Z,99315.28
2023-04-06T07:08:24.893Z,99324.25
2023-04-06T07:10:59.357Z,99316.75
2023-04-06T07:13:27.988Z,99313.16
2023-04-06T07:15:54.981Z,99312.44
2023-04-06T07:18:22.136Z,99315.81
2023-04-06T07:20:48.644Z,99309.28
2023-04-06T07:23:15.209Z,99314.91
2023-04-06T07:25:41.780Z,99313.44
2023-04-06T07:28:08.615Z,99318.41
2023-04-06T07:30:36.979Z,99325.13
2023-04-06T07:33:03.780Z,99320.03
2023-04-06T07:35:31.160Z,99319.81
2023-04-06T07:37:58.273Z,99323.13
2023-04-06T07:40:24.784Z,99314.59
2023-04-06T07:42:51.393Z,99313.72
2023-04-06T07:45:17.863Z,99316.56
2023-04-06T07:47:44.256Z,99304.84
2023-04-06T07:50:11.351Z,99309.53
2023-04-06T07:52:38.671Z,99305.56
2023-04-06T07:55:05.876Z,99313.81
2023-04-06T07:57:32.265Z,99309.06
2023-04-06T07:59:59.162Z,99308.16
2023-04-06T08:02:25.698Z,99307.84
2023-04-06T08:04:52.513Z,99308.25
2023-04-06T08:07:18.974Z,99310.34
2023-04-06T08:09:45.526Z,99309.25
2023-04-06T08:12:12.394Z,99308.00
2023-04-06T08:14:38.783Z,99309.13
2023-04-06T08:17:06.487Z,99304.44
2023-04-06T08:19:33.292Z,99302.16
2023-04-06T08:21:59.710Z,99298.19
2023-04-06T08:24:26.581Z,99301.19
2023-04-06T08:26:53.939Z,99302.78
2023-04-06T08:29:20.836Z,99298.75
2023-04-06T08:31:47.221Z,99291.34
2023-04-06T08:34:14.579Z,99296.28
2023-04-06T08:36:42.134Z,99300.47
2023-04-06T08:39:08.750Z,99290.44
2023-04-06T08:41:35.770Z,99292.56
2023-04-06T08:44:03.533Z,99291.25
2023-04-06T08:46:31.542Z,99285.06
2023-04-06T08:49:03.068Z,99293.56
2023-04-06T08:51:31.533Z,99292.94
2023-04-06T08:54:00.500Z,99290.81
2023-04-06T08:56:28.928Z,99297.28
2023-04-06T08:58:56.879Z,99292.56
2023-04-06T09:01:30.465Z,99298.78
2023-04-06T09:03:59.502Z,99290.22
2023-04-06T09:06:27.846Z,99295.53
2023-04-06T09:08:54.513Z,99293.56
2023-04-06T09:11:21.304Z,99292.47
2023-04-06T09:13:53.750Z,99300.50
2023-04-06T09:16:20.803Z,99300.44
2023-04-06T09:18:48.486Z,99299.63
2023-04-06T09:21:19.274Z,99289.06
2023-04-06T09:23:46.537Z,99298.94
2023-04-06T09:26:15.007Z,99295.28
2023-04-06T09:28:57.915Z,99291.06
2023-04-06T09:31:28.848Z,99287.38
2023-04-06T09:33:56.940Z,99280.44
2023-04-06T09:36:41.218Z,99284.78
2023-04-06T09:39:08.546Z,99277.16
2023-04-06T09:41:36.684Z,99273.97
2023-04-06T09:44:10.408Z,99270.22
2023-04-06T09:46:55.151Z,99268.44
2023-04-06T09:49:27.664Z,99273.91
2023-04-06T09:52:00.734Z,99268.59
2023-04-06T09:54:31.052Z,99268.19
2023-04-06T09:57:26.331Z,99272.72
2023-04-06T10:00:12.025Z,99262.16
2023-04-06T10:03:10.431Z,99261.84
2023-04-06T10:05:56.125Z,99249.16
2023-04-06T10:08:25.146Z,99258.97
2023-04-06T10:10:52.687Z,99259.56
2023-04-06T10:13:20.244Z,99256.72
2023-04-06T10:15:47.251Z,99246.75
2023-04-06T10:18:15.218Z,99259.75
2023-04-06T10:20:50.443Z,99244.31
2023-04-06T10:23:17.130Z,99249.59
2023-04-06T10:26:00.867Z,99249.00
2023-04-06T10:28:37.140Z,99246.13
2023-04-06T10:31:06.962Z,99236.31
2023-04-06T10:33:33.642Z,99235.03
2023-04-06T10:36:30.709Z,99233.06
2023-04-06T10:39:00.002Z,99236.09
2023-04-06T10:41:43.867Z,99239.31
2023-04-06T10:44:21.499Z,99239.94
2023-04-06T10:47:01.388Z,99237.44
2023-04-06T10:49:28.196Z,99229.88
2023-04-06T10:51:55.992Z,99227.16
2023-04-06T10:54:24.825Z,99232.63
2023-04-06T10:56:51.362Z,99230.91
2023-04-06T10:59:22.480Z,99226.22
2023-04-06T11:01:49.890Z,99222.16
2023-04-06T11:04:18.994Z,99227.66
2023-04-06T11:06:50.757Z,99219.16
2023-04-06T11:09:30.888Z,99224.56
2023-04-06T11:11:57.855Z,99220.19
2023-04-06T11:14:24.504Z,99225.28
2023-04-06T11:16:51.294Z,99219.38
2023-04-06T11:19:18.432Z,99220.94
2023-04-06T11:21:50.646Z,99217.78
2023-04-06T11:24:24.623Z,99210.69
2023-04-06T11:26:57.522Z,99221.63
2023-04-06T11:29:26.514Z,99214.22
2023-04-06T11:31:58.653Z,99208.31
2023-04-06T11:34:25.998Z,99209.16
2023-04-06T11:36:58.031Z,99203.09
2023-04-06T11:39:26.568Z,99204.09
2023-04-06T11:42:01.345Z,99198.41
2023-04-06T11:44:41.263Z,99193.00
2023-04-06T11:47:09.843Z,99184.88
2023-04-06T11:49:40.721Z,99193.13
2023-04-06T11:52:17.879Z,99183.81
2023-04-06T11:54:45.423Z,99176.59
2023-04-06T11:57:11.860Z,99185.22
2023-04-06T11:59:38.357Z,99189.94
2023-04-06T12:02:05.404Z,99188.59
2023-04-06T12:04:32.616Z,99186.88
2023-04-06T12:06:59.343Z,99184.84
2023-04-06T12:09:26.032Z,99185.00
2023-04-06T12:11:52.831Z,99192.78
2023-04-06T12:14:19.315Z,99194.97
2023-04-06T12:16:46.239Z,99195.47
2023-04-06T12:19:12.710Z,99190.63
2023-04-06T12:21:39.569Z,99180.16
2023-04-06T12:24:06.400Z,99190.97
2023-04-06T12:26:34.454Z,99190.97
2023-04-06T12:29:10.110Z,99188.59
2023-04-06T12:31:39.183Z,99184.56
2023-04-06T12:34:05.972Z,99184.91
2023-04-06T12:36:35.509Z,99191.28
2023-04-06T12:39:02.266Z,99193.00
2023-04-06T12:41:29.780Z,99192.63
2023-04-06T12:43:56.626Z,99195.84
2023-04-06T12:46:24.657Z,99192.13
2023-04-06T12:48:54.524Z,99196.34
2023-04-06T12:51:22.574Z,99191.78
2023-04-06T12:53:49.107Z,99187.59
2023-04-06T12:56:22.099Z,99188.59
2023-04-06T12:58:48.539Z,99187.56
2023-04-06T13:01:15.330Z,99181.88
2023-04-06T13:03:42.885Z,99179.13
2023-04-06T13:06:10.353Z,99182.69
2023-04-06T13:08:38.950Z,99175.09
2023-04-06T13:11:09.315Z,99175.63
2023-04-06T13:13:36.201Z,99174.78
2023-04-06T13:16:05.652Z,99170.41
2023-04-06T13:18:33.264Z,99169.25
2023-04-06T13:21:03.465Z,99170.22
2023-04-06T13:23:30.183Z,99173.78
2023-04-06T13:26:01.615Z,99169.06
2023-04-06T13:28:28.709Z,99171.75
2023-04-06T13:30:56.201Z,99170.03
2023-04-06T13:33:23.138Z,99165.28
2023-04-06T13:35:49.518Z,99164.91
2023-04-06T13:38:17.343Z,99162.94
2023-04-06T13:40:44.883Z,99160.53
2023-04-06T13:43:11.720Z,99160.84
2023-04-06T13:45:39.225Z,99162.69
2023-04-06T13:48:06.817Z,99160.47
2023-04-06T13:50:33.999Z,99167.47
2023-04-06T13:53:00.602Z,99176.50
2023-04-06T13:55:27.020Z,99172.06
2023-04-06T13:57:53.675Z,99177.09
2023-04-06T14:00:20.329Z,99169.94
2023-04-06T14:02:46.801Z,99180.94
2023-04-06T14:05:13.415Z,99170.44
2023-04-06T14:07:39.791Z,99178.34
2023-04-06T14:10:14.717Z,99177.88
2023-04-06T14:12:45.583Z,99186.94
2023-04-06T14:15:13.309Z,99182.78
2023-04-06T14:17:39.779Z,99183.03
2023-04-06T14:20:07.829Z,99183.03
2023-04-06T14:22:34.217Z,99184.25
2023-04-06T14:25:00.835Z,99187.75
2023-04-06T14:27:27.500Z,99183.78
2023-04-06T14:29:55.018Z,99177.25
2023-04-06T14:32:22.307Z,99185.19
2023-04-06T14:34:48.795Z,99187.63
2023-04-06T14:37:15.895Z,99200.28
2023-04-06T14:39:42.318Z,99193.06
2023-04-06T14:42:08.717Z,99200.97
2023-04-06T14:44:38.016Z,99194.59
2023-04-06T14:47:07.242Z,99202.00
2023-04-06T14:49:33.829Z,99194.97
2023-04-06T14:52:01.338Z,99200.44
2023-04-06T14:54:27.753Z,99191.25
2023-04-06T14:56:54.524Z,99194.22
2023-04-06T14:59:21.272Z,99195.66
2023-04-06T15:01:48.344Z,99195.94
2023-04-06T15:04:15.150Z,99199.03
2023-04-06T15:06:43.786Z,99194.47
2023-04-06T15:09:10.493Z,99202.59
2023-04-06T15:11:36.844Z,99194.75
2023-04-06T15:14:03.268Z,99197.16
2023-04-06T15:16:33.145Z,99200.69
2023-04-06T15:19:01.348Z,99194.63
2023-04-06T15:21:28.182Z,99205.13
2023-04-06T15:23:54.984Z,99198.91
2023-04-06T15:26:22.243Z,99198.22
2023-04-06T15:28:49.057Z,99194.22
2023-04-06T15:31:32.955Z,99188.47
2023-04-06T15:34:00.771Z,99198.66
2023-04-06T15:36:31.025Z,99201.47
2023-04-06T15:39:01.565Z,99201.06
2023-04-06T15:41:28.713Z,99197.13
2023-04-06T15:43:56.114Z,99194.72
2023-04-06T15:46:23.195Z,99195.69
2023-04-06T15:48:50.076Z,99194.56
2023-04-06T15:51:17.532Z,99190.78
2023-04-06T15:53:44.601Z,99193.63
2023-04-06T15:56:11.055Z,99190.66
2023-04-06T15:58:38.147Z,99188.41
2023-04-06T16:01:18.734Z,99191.09
2023-04-06T16:03:46.789Z,99196.66
2023-04-06T16:06:14.017Z,99190.88
2023-04-06T16:08:41.037Z,99196.09
2023-04-06T16:11:08.369Z,99202.16
2023-04-06T16:13:35.711Z,99205.25
2023-04-06T16:16:03.980Z,99192.31
2023-04-06T16:18:31.415Z,99197.38
2023-04-06T16:20:59.964Z,99197.81
2023-04-06T16:23:27.127Z,99197.97
2023-04-06T16:25:58.046Z,99196.25
2023-04-06T16:28:25.616Z,99205.84
2023-04-06T16:30:52.861Z,99211.63
2023-04-06T16:33:19.849Z,99212.34
2023-04-06T16:35:47.332Z,99209.22
2023-04-06T16:38:14.533Z,99213.59
2023-04-06T16:40:41.097Z,99218.78
2023-04-06T16:43:07.760Z,99222.00
2023-04-06T16:45:34.208Z,99224.06
2023-04-06T16:48:00.718Z,99233.31
2023-04-06T16:50:27.682Z,99236.44
2023-04-06T16:52:54.072Z,99229.91
2023-04-06T16:55:20.551Z,99229.75
2023-04-06T16:57:49.100Z,99239.31
2023-04-06T17:00:16.577Z,99237.84
2023-04-06T17:02:47.298Z,99232.03
2023-04-06T17:05:14.535Z,99240.78
2023-04-06T17:07:41.119Z,99234.47
2023-04-06T17:10:08.518Z,99238.91
2023-04-06T17:12:34.936Z,99238.19
2023-04-06T17:15:01.520Z,99236.94
2023-04-06T17:17:27.892Z,99251.22
2023-04-06T17:19:54.371Z,99248.59
2023-04-06T17:22:21.390Z,99251.16
2023-04-06T17:24:49.351Z,99258.41
2023-04-06T17:27:16.611Z,99256.03
2023-04-06T17:29:43.179Z,99264.00
2023-04-06T17:32:11.890Z,99262.88
2023-04-06T17:34:38.944Z,99261.16
2023-04-06T17:37:05.788Z,99274.38
2023-04-06T17:39:32.426Z,99270.34
2023-04-06T17:41:59.844Z,99277.38
2023-04-06T17:44:26.686Z,99277.88
2023-04-06T17:46:53.625Z,99277.94
2023-04-06T17:49:20.402Z,99283.63
2023-04-06T17:51:46.991Z,99280.25
2023-04-06T17:54:13.353Z,99290.94
2023-04-06T17:56:39.853Z,99287.03
2023-04-06T17:59:08.320Z,99288.38
2023-04-06T18:01:34.873Z,99293.50
2023-04-06T18:04:01.498Z,99300.53
2023-04-06T18:06:28.021Z,99303.22
2023-04-06T18:08:54.920Z,99293.84
2023-04-06T18:11:21.623Z,99299.13
2023-04-06T18:13:48.644Z,99303.84
2023-04-06T18:16:17.105Z,99298.41
2023-04-06T18:18:43.606Z,99309.66
2023-04-06T18:21:10.220Z,99301.19
2023-04-06T18:23:38.010Z,99300.94
2023-04-06T18:26:06.153Z,99290.88
2023-04-06T18:28:33.287Z,99293.19
2023-04-06T18:31:00.228Z,99300.09
2023-04-06T18:33:29.804Z,99307.16
2023-04-06T18:35:59.872Z,99304.59
2023-04-06T18:38:26.372Z,99314.16
2023-04-06T18:40:53.190Z,99316.47
2023-04-06T18:43:19.829Z,99310.41
2023-04-06T18:45:46.580Z,99317.59
2023-04-06T18:48:13.672Z,99320.00
2023-04-06T18:50:40.518Z,99319.25
2023-04-06T18:53:07.016Z,99321.09
2023-04-06T18:55:34.109Z,99323.28
2023-04-06T18:58:00.819Z,99329.59
2023-04-06T19:00:27.889Z,99326.16
2023-04-06T19:02:54.528Z,99322.78
2023-04-06T19:05:22.162Z,99327.41
2023-04-06T19:07:52.210Z,99320.47
2023-04-06T19:10:19.292Z,99317.69
2023-04-06T19:12:46.659Z,99316.00
2023-04-06T19:15:13.387Z,99323.00
2023-04-06T19:17:40.418Z,99325.19
2023-04-06T19:20:07.737Z,99320.59
2023-04-06T19:22:36.228Z,99319.16
2023-04-06T19:25:03.961Z,99319.84
2023-04-06T19:27:30.682Z,99314.53
2023-04-06T19:29:57.568Z,99312.59
2023-04-06T19:32:24.172Z,99313.56
2023-04-06T19:34:51.350Z,99311.84
2023-04-06T19:37:17.985Z,99318.66
2023-04-06T19:39:44.353Z,99308.09
2023-04-06T19:42:12.153Z,99302.91
2023-04-06T19:44:38.488Z,99304.34
2023-04-06T19:47:05.210Z,99306.41
2023-04-06T19:49:31.603Z,99309.69
2023-04-06T19:51:57.980Z,99307.25
2023-04-06T19:54:24.675Z,99302.75
2023-04-06T19:56:51.532Z,99302.91
2023-04-06T19:59:18.043Z,99295.25
2023-04-06T20:01:45.437Z,99294.41
2023-04-06T20:04:13.002Z,99302.16
2023-04-06T20:06:39.752Z,99295.38
2023-04-06T20:09:06.564Z,99291.25
2023-04-06T20:11:35.488Z,99293.31
2023-04-06T20:14:02.131Z,99280.59
2023-04-06T20:16:28.620Z,99284.94
2023-04-06T20:18:55.280Z,99283.25
2023-04-06T20:21:22.217Z,99289.09
2023-04-06T20:23:48.622Z,99288.09
2023-04-06T20:26:15.991Z,99292.47
2023-04-06T20:28:42.461Z,99291.59
2023-04-06T20:31:08.831Z,99284.97
2023-04-06T20:33:35.801Z,99290.53
2023-04-06T20:36:02.753Z,99284.09
2023-04-06T20:40:59.999Z,99276.47
2023-04-06T20:43:28.633Z,99272.59
2023-04-06T20:45:59.258Z,99269.31
2023-04-06T20:48:26.299Z,99267.75
2023-04-06T20:50:53.038Z,99269.06
2023-04-06T20:53:20.938Z,99259.09
2023-04-06T20:55:47.805Z,99264.09
2023-04-06T20:58:20.470Z,99259.72
2023-04-06T21:00:49.775Z,99263.34
2023-04-06T21:03:17.569Z,99261.06
2023-04-06T21:05:55.652Z,99267.38
2023-04-06T21:08:22.470Z,99254.28
2023-04-06T21:10:48.932Z,99248.59
2023-04-06T21:13:15.689Z,99252.22
2023-04-06T21:15:42.640Z,99254.88
2023-04-06T21:18:09.610Z,99253.06
2023-04-06T21:20:36.921Z,99243.59
2023-04-06T21:23:03.488Z,99243.25
2023-04-06T21:25:29.833Z,99237.94
2023-04-06T21:27:56.249Z,99231.59
2023-04-06T21:30:23.444Z,99235.75
2023-04-06T21:32:49.823Z,99229.19
2023-04-06T21:35:16.361Z,99226.50
2023-04-06T21:37:42.800Z,99226.53
2023-04-06T21:40:09.752Z,99218.03
2023-04-06T21:42:36.100Z,99215.38
2023-04-06T21:45:02.694Z,99215.75
2023-04-06T21:47:29.425Z,99219.47
2023-04-06T21:49:55.796Z,99219.25
2023-04-06T21:52:22.168Z,99220.72
2023-04-06T21:54:48.905Z,99214.50
2023-04-06T21:57:15.242Z,99214.13
2023-04-06T21:59:41.608Z,99211.72
2023-04-06T22:02:08.138Z,99209.28
2023-04-06T22:04:34.613Z,99207.75
2023-04-06T22:07:01.196Z,99214.16
2023-04-06T22:09:27.900Z,99205.19
2023-04-06T22:11:54.704Z,99204.59
2023-04-06T22:14:21.706Z,99201.81
2023-04-06T22:16:48.444Z,99201.66
2023-04-06T22:19:15.485Z,99195.25
2023-04-06T22:21:41.962Z,99193.28
2023-04-06T22:24:08.620Z,99195.00
2023-04-06T22:26:35.429Z,99203.47
2023-04-06T22:29:01.852Z,99189.56
2023-04-06T22:31:28.608Z,99184.94
2023-04-06T22:33:55.560Z,99180.72
2023-04-06T22:36:22.006Z,99187.72
2023-04-06T22:38:51.065Z,99189.91
2023-04-06T22:41:17.481Z,99175.22
2023-04-06T22:43:43.853Z,99182.75
2023-04-06T22:46:10.601Z,99185.69
2023-04-06T22:48:36.960Z,99180.34
2023-04-06T22:51:03.376Z,99174.03
2023-04-06T22:53:30.170Z,99172.72
2023-04-06T22:55:56.643Z,99162.88
2023-04-06T22:58:23.033Z,99163.13
2023-04-06T23:00:49.384Z,99156.19
2023-04-06T23:03:15.891Z,99159.50
2023-04-06T23:05:42.624Z,99155.84
2023-04-06T23:08:08.966Z,99158.16
2023-04-06T23:10:37.218Z,99148.91
2023-04-06T23:13:03.560Z,99159.81
2023-04-06T23:15:30.031Z,99149.16
2023-04-06T23:17:56.540Z,99155.59
2023-04-06T23:20:23.399Z,99148.31
2023-04-06T23:22:49.727Z,99144.16
2023-04-06T23:25:16.543Z,99148.91
2023-04-06T23:27:43.201Z,99137.03
2023-04-06T23:30:10.060Z,99141.91
2023-04-06T23:32:37.116Z,99132.44
2023-04-06T23:35:03.800Z,99141.31
2023-04-06T23:37:31.002Z,99134.97
2023-04-06T23:39:57.513Z,99136.81
2023-04-06T23:42:28.800Z,99141.16
2023-04-06T23:44:55.479Z,99140.31
2023-04-06T23:47:21.893Z,99137.41
2023-04-06T23:49:48.354Z,99131.47
2023-04-06T23:52:14.688Z,99137.66
2023-04-06T23:54:41.057Z,99142.50
2023-04-06T23:57:07.601Z,99139.94
2023-04-06T23:59:34.003Z,99146.00
